Aviation Digital Data Service (ADDS)

Output produced by METARs form (2222 UTC 12 February 2016)
found at http://aviationweather.gov/adds/metars/
 
KAOO 122128Z 1221/1318 26006KT 2SM -SN BKN035 OVC045 
     FM122200 24010G17KT 1SM -SN OVC018 
     TEMPO 1301/1305 28020G32KT 1/4SM +SN SQ BLSN VV010 
     FM130500 28010G17KT 1 1/2SM -SN OVC025 
     FM130600 29015G23KT 4SM -SN OVC035